ADDS METAR Data INFO
IDs: Format: Raw Decoded Include TAF

Data at: 1849 UTC 16 Dec 2017

KAPN 161754Z AUTO 01010KT 10SM OVC018 M09/M12 A3006 RMK AO2 SLP194 60000 T10941122 11083 21106 51013
KAPN 161654Z AUTO 02008KT 10SM OVC017 M09/M12 A3006 RMK AO2 SNB21E44 SLP192 P0000 T10891122
KAPN 161554Z AUTO 36009KT 10SM OVC017 M09/M12 A3006 RMK AO2 SNE07 SLP192 P0000 T10891122
KAPN 161454Z AUTO 01012KT 8SM -SN FEW015 BKN023 OVC038 M09/M11 A3002 RMK AO2 SNB09 SLP180 P0000 60000 T10891111 53030
KAPN 161447Z AUTO 02012KT 8SM -SN FEW015 BKN023 OVC038 M08/M11 A3002 RMK AO2 SNB09 P0000 T10831111
KAPN 161354Z AUTO 01006KT 7SM OVC039 M10/M11 A2999 RMK AO2 SLP169 T11001111
KAPN 161254Z AUTO 36006KT 9SM OVC039 M10/M12 A2996 RMK AO2 SNB19E35 SLP159 P0000 T11001117
KAPN 161154Z AUTO 35005KT 9SM OVC040 M09/M11 A2993 RMK AO2 SNE08B15E41 SLP149 P0000 60000 70003 T10941106 11067 21094 53027
KAPN 161109Z AUTO 34006KT 5SM BR SCT026 OVC042 M09/M11 A2991 RMK AO2 SNE08 P0000 T10891106
KAPN 161054Z AUTO 33004KT 4SM -SN BR FEW015 OVC026 M09/M10 A2991 RMK AO2 SLP140 P0000 T10891100
KAPN 161032Z AUTO 34007KT 3SM -SN BR SCT016 BKN024 OVC045 M08/M10 A2990 RMK AO2 VIS 2 1/2 RY 19 P0000 T10831100
KAPN 161024Z AUTO 35007KT 2 1/2SM -SN BR SCT016 BKN025 OVC045 M08/M09 A2989 RMK AO2 P0000 T10781094
KAPN 160954Z AUTO 32005KT 6SM -SN FEW030 OVC047 M08/M11 A2988 RMK AO2 SNB51 SLP130 P0000 T10781106
KAPN 160854Z AUTO 28003KT 10SM OVC046 M07/M11 A2985 RMK AO2 SLP121 T10721106 51016
KAPN 160754Z AUTO 28005KT 10SM OVC044 M07/M10 A2984 RMK AO2 SLP117 T10671100
KAPN 160654Z AUTO 28004KT 10SM OVC046 M07/M09 A2982 RMK AO2 SLP110 T10671094
KAPN 160554Z AUTO 27005KT 10SM OVC043 M07/M09 A2980 RMK AO2 SLP104 60000 T10671089 11050 21067 53009
KAPN 160454Z AUTO 27003KT 10SM OVC050 M06/M08 A2979 RMK AO2 SLP101 T10611083 410281078
KAPN 160354Z AUTO 26005KT 10SM FEW021 OVC065 M06/M08 A2978 RMK AO2 SLP097 T10611078
KAPN 160254Z AUTO 27004KT 10SM SCT020 OVC060 M06/M08 A2978 RMK AO2 SNB18E40 SLP094 P0000 60000 T10611078 51020
KAPN 160154Z AUTO 26006KT 10SM SCT045 OVC060 M06/M08 A2976 RMK AO2 SLP088 T10561078
KAPN 160054Z AUTO 26006KT 10SM SCT050 OVC070 M06/M08 A2974 RMK AO2 SNB06E18 SLP081 P0000 T10561083
KAPN 152354Z AUTO 27007KT 10SM SCT050 BKN075 M05/M08 A2971 RMK AO2 SLP074 60000 T10501083 11028 21056 53018
KAPN 152254Z AUTO 28007KT 10SM FEW027 SCT036 OVC080 M04/M08 A2970 RMK AO2 SNB20E29 SLP067 P0000 T10441078
KAPN 152243Z AUTO 28009G16KT 10SM FEW025 SCT032 OVC080 M04/M07 A2969 RMK AO2 SNB20E29 P0000 T10441072
KAPN 152219Z AUTO 26007KT 10SM FEW020 BKN028 OVC080 M04/M07 A2968 RMK AO2 T10441072
KAPN 152207Z AUTO 26005KT 10SM SCT026 BKN031 OVC080 M04/M07 A2968 RMK AO2 T10441067
KAPN 152154Z AUTO 24005KT 10SM BKN029 OVC080 M04/M07 A2967 RMK AO2 SLP060 T10441072
KAPN 152134Z AUTO 25005KT 10SM SCT027 BKN080 M04/M08 A2967 RMK AO2 T10441078
KAPN 152122Z AUTO 26007KT 10SM BKN027 BKN033 M04/M08 A2967 RMK AO2 T10391078
KAPN 152054Z AUTO VRB06KT 10SM FEW027 BKN036 OVC048 M04/M08 A2966 RMK AO2 SLP055 60000 T10391078 53002
KAPN 151954Z AUTO VRB05KT 10SM FEW023 BKN060 M04/M07 A2965 RMK AO2 SLP050 T10391072
KAPN 151854Z AUTO 27005KT 9SM FEW020 SCT030 OVC065 M04/M07 A2965 RMK AO2 SNB13E52 SLP052 P0000 T10391067
KAPN 151832Z AUTO 24008KT 4SM -SN BKN025 OVC035 M04/M07 A2965 RMK AO2 SNB13 P0000 T10441072
KAPN 151754Z AUTO 25011KT 10SM FEW018 SCT060 BKN110 M04/M08 A2966 RMK AO2 SLP054 60003 T10391078 11039 21072 58024
KAPN 151654Z AUTO 22007KT 7SM BKN043 OVC060 M06/M07 A2968 RMK AO2 SNE43 SLP062 P0000 T10561072
KAPN 151637Z AUTO 20009KT 3SM -SN BR BKN036 OVC045 M06/M07 A2969 RMK AO2 VIS 2 RY 19 P0000 T10561072
KAPN 151623Z AUTO 22010KT 1 1/2SM -SN BR BKN034 BKN043 OVC050 M06/M08 A2970 RMK AO2 P0000 T10561078
KAPN 151554Z AUTO 20007KT 4SM -SN BR BKN042 OVC055 M06/M07 A2971 RMK AO2 VIS 2 1/2 RY 19 SNE27B51 SLP073 P0001 T10561072
KAPN 151529Z AUTO 20007KT 5SM BR BKN037 BKN055 OVC065 M06/M08 A2972 RMK AO2 SNE27 P0001 T10611078
KAPN 151519Z AUTO 19010KT 2 1/2SM -SN BR BKN030 BKN038 OVC060 M06/M08 A2972 RMK AO2 P0001 T10611078
KAPN 151509Z AUTO 20008KT 1 3/4SM -SN BR BKN029 OVC037 M06/M08 A2972 RMK AO2 P0000 T10611078
KAPN 151454Z AUTO 18009KT 3SM -SN BR BKN025 BKN035 OVC060 M07/M08 A2973 RMK AO2 SLP079 P0000 60002 T10671078 56021
KAPN 151401Z AUTO 18009KT 1 1/2SM -SN BR OVC029 M07/M08 A2974 RMK AO2 P0000 T10671083
KAPN 151354Z AUTO 19009KT 2SM -SN BR OVC031 M07/M08 A2974 RMK AO2 SLP085 P0001 T10671083
KAPN 151323Z AUTO 18010KT 1 3/4SM -SN BR OVC035 M07/M08 A2976 RMK AO2 P0000 T10671083
KAPN 151254Z AUTO 18008KT 3SM -SN BR OVC045 M07/M08 A2977 RMK AO2 SLP092 P0001 T10721083
KAPN 151221Z AUTO 19008KT 3SM -SN BR OVC031 M07/M08 A2978 RMK AO2 VIS 2 RY 19 P0000 T10721083
KAPN 151213Z AUTO 19008KT 2SM -SN BR OVC027 M07/M08 A2978 RMK AO2 P0000 T10721083
KAPN 151154Z AUTO 19008KT 1 3/4SM -SN BR OVC025 M07/M08 A2979 RMK AO2 SLP101 P0001 60003 70003 T10721083 11072 21072 56021
KAPN 151145Z AUTO 19008KT 1 3/4SM -SN BR OVC027 M07/M08 A2980 RMK AO2 P0001 T10721083
KAPN 151130Z AUTO 19007KT 2 1/2SM -SN BR OVC037 M07/M08 A2980 RMK AO2 P0001 T10721083
KAPN 151119Z AUTO 19008KT 3SM -SN BR OVC033 M07/M08 A2980 RMK AO2 P0000 T10721083
KAPN 151112Z AUTO 19007KT 2 1/2SM -SN BR OVC033 M07/M08 A2981 RMK AO2 P0000 T10721083
KAPN 151054Z AUTO 19008KT 2 1/2SM -SN BR OVC029 M07/M08 A2981 RMK AO2 SLP107 P0001 T10721083
KAPN 151029Z AUTO 20007KT 2SM -SN BR OVC029 M07/M08 A2982 RMK AO2 P0000 T10721083
KAPN 151007Z AUTO 19007KT 2 1/2SM -SN BR OVC030 M07/M09 A2983 RMK AO2 P0000 T10721089
KAPN 150954Z AUTO 20006KT 2 1/2SM -SN BR OVC028 M07/M09 A2983 RMK AO2 SLP115 P0001 T10721089
KAPN 150940Z AUTO 20006KT 2 1/2SM -SN BR OVC028 M07/M09 A2984 RMK AO2 VIS 1 1/2 RY 19 P0001 T10721089
KAPN 150930Z AUTO 20006KT 2SM -SN BR OVC030 M07/M09 A2984 RMK AO2 P0001 T10721089
KAPN 150854Z AUTO 20004KT 5SM -SN BR OVC042 M07/M09 A2985 RMK AO2 SNE03B48 SLP122 P0000 60000 T10721094 58017
KAPN 150754Z AUTO 21005KT 6SM -SN BR FEW037 BKN075 OVC095 M07/M09 A2988 RMK AO2 SNB43 SLP131 P0000 T10721094
KAPN 150654Z AUTO 21003KT 10SM FEW036 SCT045 OVC090 M07/M11 A2990 RMK AO2 SLP137 T10721106